Maragheh, Iran
Current Conditions -  °F | °C
As of 7:00 AM on Friday 19 Dec 2014 (Local Time) from OITM Reporting Station
Scattered Clouds Scattered Clouds  
Wind Chill: 32°   Ceiling: Unl
Heat Index: 37°   Visibility: 6mi
Dew Point: 27°   Wind: 7mph
Humidity: 65%   Direction: 80°E
Pressure: 30.15"   Gusts: NA
Location:  37.38°N, 46.27°E
Report Text: OITM 190300Z 08006KT 9999 FEW035 SCT190 03/M03 Q1021
Loading
Personal Weather Stations






























Interactive Weather Map New forecast layout! Learn more

10-Day Weather Forecast

Advertisements
Track Severe Weather on mobile